M I D A S
Marine Information and Data Acquisition System
Tripno 2015 of the Zeeleeuw from 2010-11-17 08:29:53 to 2010-11-17 15:14:32
Back to CruiseResearch ActivitiesStationsMapUnderway DataData graphs

EquipmentUnitsComment
TimeDGPSUTC
LatitudeDGPSDM.mWGS84
LongitudeDGPSDM.mWGS84
TemperatureSBE03/SBE38deg celciusITS90
ConductivitySBE21S/mITS90
SalinitySBE21 Practical Salinity Units
ChlorophylAChelsea fluorimeterg/lCalibrated in Aceton
Missing or incorrect values are displayed as -999
Sea surface data collected by the RV Zeeleeuw from 2010-11-17 07:24:56 to 2010-11-17 15:26:02
Time Latitude Longitude Temperature Conductivity Salinity ChlorophylA
2010-11-17 07:26:01 51°13.665 2°55.957 -999 -999 -999 -999
2010-11-17 07:27:01 51°13.664 2°55.958 -999 -999 -999 -999
2010-11-17 07:28:01 51°13.663 2°55.958 -999 -999 -999 -999
2010-11-17 07:29:01 51°13.663 2°55.958 -999 -999 -999 -999
2010-11-17 07:30:00 51°13.664 2°55.958 -999 -999 -999 -999
2010-11-17 07:30:57 51°13.664 2°55.958 -999 -999 -999 -999
2010-11-17 07:31:57 51°13.665 2°55.959 -999 -999 -999 -999
2010-11-17 07:32:56 51°13.664 2°55.959 -999 -999 -999 -999
2010-11-17 07:33:57 51°13.667 2°55.96 -999 -999 -999 -999
2010-11-17 07:34:57 51°13.662 2°55.959 -999 -999 -999 -999
2010-11-17 07:35:57 51°13.664 2°55.959 -999 -999 -999 -999
2010-11-17 07:36:57 51°13.664 2°55.96 -999 -999 -999 -999
2010-11-17 07:37:58 51°13.662 2°55.958 -999 -999 -999 -999
2010-11-17 07:38:57 51°13.663 2°55.959 -999 -999 -999 -999
2010-11-17 07:39:57 51°13.663 2°55.959 -999 -999 -999 -999
2010-11-17 07:40:57 51°13.663 2°55.959 -999 -999 -999 -999
2010-11-17 07:41:57 51°13.663 2°55.96 -999 -999 -999 -999
2010-11-17 07:42:57 51°13.664 2°55.961 -999 -999 -999 -999
2010-11-17 07:43:56 51°13.664 2°55.96 11.5045 3.04798 25.753289 0.35757
2010-11-17 07:44:57 51°13.666 2°55.963 -999 -999 -999 -3.020363
2010-11-17 07:45:57 51°13.662 2°55.959 -999 -999 -999 -999
2010-11-17 07:46:57 51°13.661 2°55.959 -999 -999 -999 -999
2010-11-17 07:47:58 51°13.665 2°55.961 11.149 3.431691 30.003331 0.148626
2010-11-17 07:48:58 51°13.664 2°55.961 11.1534 3.431586 30.020455 0.113802
2010-11-17 07:49:57 51°13.665 2°55.962 11.1302 3.442444 30.133627 0.078977
2010-11-17 07:50:56 51°13.664 2°55.96 11.1214 3.461209 30.325052 0.078977
2010-11-17 07:51:57 51°13.662 2°55.959 11.183 3.455938 30.285611 0.078977
2010-11-17 07:52:56 51°13.663 2°55.96 11.067 3.333661 29.087594 0.113802
2010-11-17 07:53:57 51°13.665 2°55.961 11.0576 3.35021 29.298231 0.113802
2010-11-17 07:54:57 51°13.663 2°55.959 11.0347 3.360962 29.421529 0.078977
2010-11-17 07:55:57 51°13.663 2°55.96 11.0334 3.367286 29.493744 0.113802
2010-11-17 07:56:57 51°13.663 2°55.961 11.0352 3.37224 29.547597 0.078977
2010-11-17 07:57:57 51°13.663 2°55.961 11.0388 3.373821 29.56295 0.078977
2010-11-17 07:58:57 51°13.673 2°55.968 11.0442 3.385838 29.671304 0.078977
2010-11-17 07:59:57 51°13.665 2°55.961 11.0513 3.417672 29.984623 0.078977
2010-11-17 08:00:57 51°13.664 2°55.96 11.0431 3.427792 30.078524 0.044153
2010-11-17 08:01:56 51°13.662 2°55.959 11.0332 3.443394 30.236946 0.078977
2010-11-17 08:02:57 51°13.662 2°55.96 11.0405 3.459945 30.401498 0.044153
2010-11-17 08:03:57 51°13.661 2°55.96 11.0379 3.469222 30.491285 0.044153
2010-11-17 08:04:57 51°13.661 2°55.959 11.0467 3.481135 30.606818 0.044153
2010-11-17 08:05:57 51°13.662 2°55.959 11.063 3.498319 30.763859 0.009329
2010-11-17 08:06:56 51°13.661 2°55.959 11.0785 3.520248 30.969935 0.009329
2010-11-17 08:07:57 51°13.66 2°55.959 11.1039 3.553881 31.283747 0.044153
2010-11-17 08:08:56 51°13.66 2°55.959 11.1104 3.500638 30.737182 0.009329
2010-11-17 08:09:56 51°13.66 2°55.958 11.0819 3.51097 30.850581 0.044153
2010-11-17 08:10:57 51°13.66 2°55.958 11.0757 3.532794 31.077012 0.044153
2010-11-17 08:11:57 51°13.66 2°55.958 11.0796 3.531634 31.06905 0.078977
2010-11-17 08:12:57 51°13.66 2°55.958 11.0731 3.546289 31.213601 0.044153
2010-11-17 08:13:57 51°13.662 2°55.958 11.0467 3.54397 31.184171 0.009329
2010-11-17 08:14:57 51°13.663 2°55.959 11.0161 3.32112 29.051792 0.113802
2010-11-17 08:15:57 51°13.664 2°55.96 11.0032 3.336193 29.219395 0.113802
2010-11-17 08:16:57 51°13.664 2°55.961 11.0031 3.33946 29.259985 0.113802
2010-11-17 08:17:57 51°13.664 2°55.961 10.9871 3.344625 29.310118 0.078977
2010-11-17 08:18:57 51°13.665 2°55.961 10.9341 3.320383 29.102061 0.148626
2010-11-17 08:19:57 51°13.664 2°55.961 10.94 3.297196 28.902848 0.148626
2010-11-17 08:20:57 51°13.664 2°55.962 10.9335 3.298988 28.920238 0.148626
2010-11-17 08:21:57 51°13.664 2°55.961 10.9383 3.299199 28.924171 0.113802
2010-11-17 08:22:57 51°13.664 2°55.962 10.8648 3.301096 28.940699 0.148626
2010-11-17 08:23:57 51°13.663 2°55.954 10.8681 3.16884 27.714267 0.18345
2010-11-17 08:25:01 51°13.685 2°55.864 10.9474 3.213414 28.135866 0.287922
2010-11-17 08:26:01 51°13.698 2°55.763 10.9547 3.404286 29.933622 0.218274
2010-11-17 08:26:59 51°13.707 2°55.727 10.8942 3.39248 29.822456 0.18345
2010-11-17 08:27:59 51°13.7 2°55.709 10.8658 3.25209 28.518832 0.18345
2010-11-17 08:28:59 51°13.761 2°55.675 10.8858 3.280018 28.787517 0.148626
2010-11-17 08:29:57 51°13.879 2°55.588 10.8252 3.261153 28.60805 0.218274
2010-11-17 08:30:57 51°14.026 2°55.486 10.8578 3.206354 28.101162 0.113802
2010-11-17 08:31:57 51°14.181 2°55.379 10.8174 3.276013 28.746731 0.009329
2010-11-17 08:32:57 51°14.337 2°55.234 10.842 3.258308 28.624093 -0.025495
2010-11-17 08:33:57 51°14.503 2°55.062 10.8868 3.411666 30.082775 -0.129967
2010-11-17 08:34:57 51°14.689 2°54.889 10.9193 3.539544 31.305794 -0.234439
2010-11-17 08:35:57 51°14.865 2°54.692 11.0415 3.600064 31.843403 -0.199615
2010-11-17 08:36:57 51°15.042 2°54.495 11.061 3.710048 32.847056 -0.269263
2010-11-17 08:37:57 51°15.219 2°54.299 11.0589 3.727765 33.009498 -0.304087
2010-11-17 08:38:57 51°15.398 2°54.106 11.0276 3.73694 33.109291 -0.338911
2010-11-17 08:39:57 51°15.576 2°53.91 11.0594 3.745483 33.214475 -0.338911
2010-11-17 08:40:57 51°15.744 2°53.698 11.0879 3.774802 33.469947 -0.338911
2010-11-17 08:41:57 51°15.915 2°53.495 11.0864 3.78345 33.537896 -0.373735
2010-11-17 08:42:57 51°16.119 2°53.366 11.06 3.795263 33.656019 -0.373735
2010-11-17 08:43:57 51°16.318 2°53.225 11.0618 3.806865 33.787524 -0.408559
2010-11-17 08:44:57 51°16.516 2°53.081 11.054 3.815302 33.874657 -0.408559
2010-11-17 08:45:57 51°16.712 2°52.932 11.0624 3.816146 33.888156 -0.408559
2010-11-17 08:46:57 51°16.907 2°52.78 11.0777 3.818467 33.900076 -0.443383
2010-11-17 08:47:57 51°17.11 2°52.644 11.0833 3.819099 33.893094 -0.408559
2010-11-17 08:48:57 51°17.334 2°52.625 11.085 3.826904 33.965137 -0.408559
2010-11-17 08:49:57 51°17.561 2°52.638 11.0758 3.82933 33.990608 -0.408559
2010-11-17 08:50:57 51°17.789 2°52.655 11.0701 3.830912 34.015117 -0.443383
2010-11-17 08:51:57 51°18.018 2°52.674 11.0802 3.830701 34.015983 -0.408559
2010-11-17 08:52:57 51°18.244 2°52.689 11.0948 3.833655 34.029702 -0.373735
2010-11-17 08:53:57 51°18.471 2°52.71 11.1001 3.82933 33.976602 -0.408559
2010-11-17 08:54:57 51°18.696 2°52.785 11.1067 3.836291 34.04176 -0.373735
2010-11-17 08:55:57 51°18.919 2°52.867 11.1125 3.839561 34.070408 -0.408559
2010-11-17 08:56:57 51°19.142 2°52.945 11.1135 3.84262 34.095489 -0.408559
2010-11-17 08:57:57 51°19.367 2°53.024 11.1183 3.840299 34.0718 -0.373735
2010-11-17 08:58:57 51°19.592 2°53.102 11.1293 3.846733 34.128779 -0.408559
2010-11-17 08:59:57 51°19.816 2°53.182 11.1467 3.850636 34.159236 -0.443383
2010-11-17 09:00:57 51°20.042 2°53.259 11.1852 3.858019 34.21225 -0.408559
2010-11-17 09:01:57 51°20.268 2°53.338 11.2057 3.862343 34.223884 -0.373735
2010-11-17 09:02:57 51°20.495 2°53.415 11.2503 3.8596 34.173875 -0.408559
2010-11-17 09:03:57 51°20.72 2°53.491 11.2943 3.872152 34.256348 -0.408559
2010-11-17 09:04:57 51°20.945 2°53.567 11.3322 3.881856 34.312098 -0.408559
2010-11-17 09:05:57 51°21.169 2°53.64 11.3638 3.887657 34.335239 -0.408559
2010-11-17 09:06:57 51°21.394 2°53.709 11.3875 3.891348 34.344977 -0.443383
2010-11-17 09:07:57 51°21.618 2°53.77 11.4071 3.900314 34.411775 -0.408559
2010-11-17 09:08:57 51°21.842 2°53.835 11.4544 3.901263 34.400406 -0.443383
2010-11-17 09:09:57 51°22.067 2°53.901 11.5481 3.907169 34.400855 -0.408559
2010-11-17 09:10:57 51°22.292 2°53.97 11.5799 3.91951 34.452637 -0.478207
2010-11-17 09:11:57 51°22.519 2°54.026 11.5948 3.924679 34.476766 -0.408559
2010-11-17 09:12:57 51°22.746 2°54.079 11.606 3.924467 34.458489 -0.443383
2010-11-17 09:13:57 51°22.974 2°54.134 11.6201 3.928898 34.490836 -0.443383
2010-11-17 09:14:57 51°23.203 2°54.185 11.6446 3.93048 34.493806 -0.443383
2010-11-17 09:15:57 51°23.432 2°54.236 11.6583 3.934277 34.508148 -0.443383
2010-11-17 09:16:57 51°23.663 2°54.289 11.6493 3.935226 34.508603 -0.443383
2010-11-17 09:17:57 51°23.893 2°54.341 11.6555 3.934172 34.505643 -0.408559
2010-11-17 09:18:57 51°24.124 2°54.394 11.6682 3.934804 34.503002 -0.443383
2010-11-17 09:19:57 51°24.354 2°54.444 11.6784 3.935226 34.496829 -0.443383
2010-11-17 09:20:57 51°24.584 2°54.494 11.6948 3.935754 34.493161 -0.408559
2010-11-17 09:21:57 51°24.812 2°54.543 11.7217 3.937441 34.491283 -0.443383
2010-11-17 09:22:57 51°25.039 2°54.589 11.7398 3.938601 34.480587 -0.408559
2010-11-17 09:23:57 51°25.267 2°54.636 11.7432 3.940711 34.487245 -0.443383
2010-11-17 09:24:57 51°25.495 2°54.682 11.7504 3.943032 34.504034 -0.373735
2010-11-17 09:25:57 51°25.724 2°54.729 11.7635 3.945247 34.520523 -0.408559
2010-11-17 09:26:57 51°25.953 2°54.776 11.7774 3.947251 34.526138 -0.408559
2010-11-17 09:27:57 51°26.182 2°54.825 11.7852 3.94936 34.53645 -0.373735
2010-11-17 09:28:57 51°26.411 2°54.875 11.7856 3.950732 34.541021 -0.408559
2010-11-17 09:29:57 51°26.641 2°54.925 11.7997 3.951787 34.549845 -0.373735
2010-11-17 09:30:57 51°26.87 2°54.977 11.8242 3.952208 34.536349 -0.408559
2010-11-17 09:31:57 51°27.1 2°55.03 11.8466 3.95474 34.542699 -0.443383
2010-11-17 09:32:57 51°27.33 2°55.081 11.8679 3.958537 34.556981 -0.408559
2010-11-17 09:33:57 51°27.56 2°55.134 11.8775 3.962124 34.573594 -0.373735
2010-11-17 09:34:57 51°27.791 2°55.184 11.8932 3.965394 34.594443 -0.373735
2010-11-17 09:35:57 51°28.021 2°55.233 11.8981 3.967714 34.604576 -0.338911
2010-11-17 09:36:57 51°28.251 2°55.279 11.8862 3.968453 34.611031 -0.338911
2010-11-17 09:37:57 51°28.48 2°55.326 11.8716 3.96782 34.613668 -0.373735
2010-11-17 09:38:57 51°28.709 2°55.371 11.8693 3.966132 34.611167 -0.338911
2010-11-17 09:39:57 51°28.938 2°55.413 11.8693 3.966343 34.613222 -0.373735
2010-11-17 09:40:57 51°29.166 2°55.459 11.8667 3.966449 34.615717 -0.373735
2010-11-17 09:41:57 51°29.394 2°55.505 11.8659 3.966871 34.620561 -0.373735
2010-11-17 09:42:57 51°29.622 2°55.552 11.8633 3.96571 34.612927 -0.338911
2010-11-17 09:43:57 51°29.851 2°55.601 11.8784 3.966238 34.614396 -0.338911
2010-11-17 09:44:57 51°30.08 2°55.653 11.8869 3.967715 34.617775 -0.373735
2010-11-17 09:45:57 51°30.309 2°55.703 11.8819 3.968453 34.61983 -0.373735
2010-11-17 09:46:57 51°30.535 2°55.776 11.8839 3.96782 34.616601 -0.373735
2010-11-17 09:47:57 51°30.762 2°55.862 11.903 3.968453 34.618363 -0.373735
2010-11-17 09:48:57 51°30.982 2°55.983 11.9346 3.971617 34.628637 -0.373735
2010-11-17 09:49:57 51°31.192 2°56.151 11.9612 3.974254 34.629377 -0.373735
2010-11-17 09:50:57 51°31.403 2°56.317 11.9863 3.977524 34.635541 -0.373735
2010-11-17 09:51:57 51°31.614 2°56.481 12.0057 3.980478 34.641554 -0.338911
2010-11-17 09:52:57 51°31.782 2°56.709 12.0215 3.983221 34.649904 -0.373735
2010-11-17 09:53:57 51°31.884 2°56.863 12.0234 3.984486 34.650494 -0.338911
2010-11-17 09:54:57 51°31.98 2°56.994 12.0182 3.985119 34.656639 -0.373735
2010-11-17 09:55:57 51°32.085 2°57.135 12.0142 3.985014 34.657809 -0.338911
2010-11-17 09:56:57 51°32.193 2°57.288 12.0038 3.984592 34.659563 -0.338911
2010-11-17 09:57:58 51°32.294 2°57.475 11.9894 3.983854 34.66044 -0.338911
2010-11-17 09:58:57 51°32.369 2°57.524 11.9838 3.982482 34.659562 -0.373735
2010-11-17 09:59:57 51°32.422 2°57.532 11.9809 3.981638 34.657951 -0.338911
2010-11-17 10:00:57 51°32.464 2°57.546 11.9714 3.9809 34.652973 -0.373735
2010-11-17 10:01:57 51°32.497 2°57.557 11.9672 3.980056 34.65429 -0.338911
2010-11-17 10:02:57 51°32.524 2°57.565 11.9588 3.979529 34.650628 -0.373735
2010-11-17 10:03:57 51°32.549 2°57.566 11.9618 3.979212 34.651947 -0.373735
2010-11-17 10:04:58 51°32.592 2°57.568 11.9592 3.979318 34.654437 -0.338911
2010-11-17 10:05:57 51°32.644 2°57.532 11.9535 3.978896 34.651068 -0.304087
2010-11-17 10:06:57 51°32.656 2°57.468 11.9512 3.978263 34.654438 -0.338911
2010-11-17 10:07:57 51°32.62 2°57.434 11.9513 3.977208 34.648577 -0.304087
2010-11-17 10:08:57 51°32.554 2°57.421 12.0213 3.976153 34.625871 -0.338911
2010-11-17 10:09:57 51°32.517 2°57.427 12.0332 3.966552 34.481567 -0.304087
2010-11-17 10:10:57 51°32.505 2°57.424 12.0358 3.970033 34.497143 -0.338911
2010-11-17 10:11:57 51°32.505 2°57.422 12.0208 3.975625 34.551369 -0.304087
2010-11-17 10:12:57 51°32.511 2°57.419 12.011 3.979106 34.596084 -0.304087
2010-11-17 10:13:57 51°32.523 2°57.413 12.0359 3.980267 34.613188 -0.338911
2010-11-17 10:14:57 51°32.539 2°57.408 12.0284 3.984486 34.641723 -0.373735
2010-11-17 10:15:57 51°32.559 2°57.404 11.9878 3.984486 34.649032 -0.373735
2010-11-17 10:16:57 51°32.576 2°57.4 11.9933 3.982799 34.65239 -0.338911
2010-11-17 10:17:57 51°32.593 2°57.394 11.9899 3.980794 34.638776 -0.338911
2010-11-17 10:18:57 51°32.609 2°57.387 11.9932 3.981216 34.645069 -0.338911
2010-11-17 10:19:57 51°32.626 2°57.377 12.0085 3.982904 34.649757 -0.338911
2010-11-17 10:20:57 51°32.642 2°57.37 11.9913 3.984064 34.652248 -0.338911
2010-11-17 10:21:57 51°32.661 2°57.364 11.9833 3.981217 34.658244 -0.373735
2010-11-17 10:22:57 51°32.679 2°57.356 11.9825 3.981322 34.658537 -0.338911
2010-11-17 10:23:57 51°32.698 2°57.348 11.9772 3.980056 34.650629 -0.338911
2010-11-17 10:24:57 51°32.716 2°57.34 11.9778 3.979951 34.649604 -0.338911
2010-11-17 10:25:57 51°32.73 2°57.332 11.9846 3.979634 34.650921 -0.373735
2010-11-17 10:26:57 51°32.715 2°57.334 11.9903 3.979845 34.65224 -0.338911
2010-11-17 10:27:57 51°32.676 2°57.363 11.9953 3.980584 34.652826 -0.373735
2010-11-17 10:28:57 51°32.625 2°57.404 11.9953 3.981638 34.654291 -0.338911
2010-11-17 10:29:57 51°32.564 2°57.407 11.9968 3.981005 34.648142 -0.373735
2010-11-17 10:30:57 51°32.503 2°57.408 12.0004 3.982271 34.661905 -0.338911
2010-11-17 10:31:58 51°32.471 2°57.397 12.0065 3.98206 34.651803 -0.338911
2010-11-17 10:32:57 51°32.468 2°57.387 12.0122 3.982588 34.653268 -0.338911
2010-11-17 10:33:57 51°32.471 2°57.379 12.0146 3.983643 34.659855 -0.338911
2010-11-17 10:34:57 51°32.478 2°57.37 12.0236 3.983748 34.656489 -0.373735
2010-11-17 10:35:57 51°32.49 2°57.363 12.0345 3.985436 34.662637 -0.338911
2010-11-17 10:36:57 51°32.504 2°57.356 12.039 3.985541 34.657079 -0.338911
2010-11-17 10:37:57 51°32.522 2°57.351 12.0497 3.984803 34.64918 -0.338911
2010-11-17 10:38:57 51°32.538 2°57.345 12.0331 3.987334 34.666442 -0.338911
2010-11-17 10:39:57 51°32.555 2°57.34 12.0259 3.98533 34.656493 -0.338911
2010-11-17 10:40:57 51°32.573 2°57.333 12.0292 3.984803 34.655029 -0.373735
2010-11-17 10:41:57 51°32.59 2°57.324 12.0299 3.98533 34.659418 -0.373735
2010-11-17 10:42:57 51°32.579 2°57.325 12.0425 3.983748 34.641864 -0.338911
2010-11-17 10:43:57 51°32.564 2°57.379 12.0342 3.985225 34.654738 -0.373735
2010-11-17 10:44:57 51°32.607 2°57.458 12.0801 3.98628 34.66571 -0.338911
2010-11-17 10:45:57 51°32.687 2°57.468 12.0563 3.991343 34.655648 -0.338911
2010-11-17 10:46:57 51°32.756 2°57.483 12.0579 3.9886 34.661913 -0.338911
2010-11-17 10:47:57 51°32.802 2°57.5 12.0381 3.987334 34.65767 -0.304087
2010-11-17 10:48:57 51°32.837 2°57.514 12.0243 3.986701 34.658837 -0.304087
2010-11-17 10:49:57 51°32.868 2°57.519 12.0193 3.984064 34.63982 -0.304087
2010-11-17 10:50:57 51°32.894 2°57.516 12.0176 3.984592 34.644939 -0.304087
2010-11-17 10:51:57 51°32.916 2°57.513 12.0153 3.985436 34.654593 -0.338911
2010-11-17 10:52:57 51°32.939 2°57.507 12.0159 3.985858 34.661613 -0.304087
2010-11-17 10:53:57 51°32.973 2°57.502 12.0177 3.985858 34.660151 -0.338911
2010-11-17 10:54:57 51°33.021 2°57.482 12.0187 3.986069 34.660736 -0.304087
2010-11-17 10:55:57 51°33.057 2°57.434 12.0175 3.985752 34.65474 -0.304087
2010-11-17 10:56:57 51°33.068 2°57.374 12.0115 3.985541 34.660735 -0.304087
2010-11-17 10:57:57 51°33.066 2°57.314 12.0118 3.984908 34.656785 -0.338911
2010-11-17 10:58:58 51°33.062 2°57.248 12.0214 3.986385 34.668928 -0.338911
2010-11-17 10:59:57 51°33.056 2°57.186 12.0218 3.985647 34.658834 -0.338911
2010-11-17 11:00:57 51°33.047 2°57.124 12.0257 3.985541 34.656348 -0.304087
2010-11-17 11:01:57 51°33.04 2°57.059 12.0314 3.987124 34.665857 -0.373735
2010-11-17 11:02:57 51°33.034 2°56.994 12.0359 3.987545 34.665565 -0.338911
2010-11-17 11:03:57 51°33.023 2°56.932 12.0367 3.987651 34.665857 -0.373735
2010-11-17 11:04:57 51°33.012 2°56.868 12.0388 3.989128 34.67434 -0.338911
2010-11-17 11:05:57 51°33.002 2°56.803 12.0453 3.987651 34.662933 -0.338911
2010-11-17 11:06:57 51°32.992 2°56.737 12.0527 3.989866 34.675656 -0.373735
2010-11-17 11:07:57 51°32.983 2°56.67 12.0562 3.990077 34.673317 -0.373735
2010-11-17 11:08:57 51°32.973 2°56.603 12.0605 3.989866 34.664694 -0.338911
2010-11-17 11:09:57 51°32.967 2°56.556 12.0672 3.990182 34.665572 -0.338911
2010-11-17 11:10:57 51°32.966 2°56.529 12.0664 3.991448 34.672004 -0.338911
2010-11-17 11:11:57 51°32.97 2°56.515 12.0656 3.991448 34.671274 -0.304087
2010-11-17 11:12:57 51°32.98 2°56.508 12.0754 3.990921 34.669081 -0.304087
2010-11-17 11:13:57 51°32.996 2°56.502 12.0754 3.992503 34.669817 -0.338911
2010-11-17 11:14:57 51°33.016 2°56.496 12.0561 3.991765 34.67069 -0.338911
2010-11-17 11:15:57 51°33.039 2°56.488 12.0651 3.989971 34.662065 -0.338911
2010-11-17 11:16:57 51°33.063 2°56.483 12.0694 3.99071 34.667035 -0.304087
2010-11-17 11:17:57 51°33.088 2°56.479 12.0584 3.991448 34.672004 -0.338911
2010-11-17 11:18:57 51°33.114 2°56.477 12.0585 3.991237 34.680188 -0.304087
2010-11-17 11:19:57 51°33.139 2°56.475 12.056 3.991132 34.675511 -0.338911
2010-11-17 11:20:57 51°33.164 2°56.472 12.063 3.989444 34.659871 -0.304087
2010-11-17 11:21:57 51°33.189 2°56.47 12.0645 3.991765 34.677265 -0.338911
2010-11-17 11:22:57 51°33.214 2°56.467 12.0558 3.991765 34.678726 -0.338911
2010-11-17 11:23:57 51°33.224 2°56.449 12.0691 3.990288 34.669517 -0.338911
2010-11-17 11:24:57 51°33.205 2°56.407 12.0742 3.991237 34.667037 -0.338911
2010-11-17 11:25:57 51°33.174 2°56.348 12.076 3.992292 34.673613 -0.304087
2010-11-17 11:26:57 51°33.145 2°56.268 12.0795 3.991659 34.666746 -0.304087
2010-11-17 11:27:57 51°33.127 2°56.171 12.0854 3.992714 34.669671 -0.338911
2010-11-17 11:28:57 51°33.108 2°56.083 12.0903 3.993558 34.675662 -0.373735
2010-11-17 11:29:57 51°33.095 2°56.045 12.0919 3.994191 34.675955 -0.338911
2010-11-17 11:30:57 51°33.09 2°56.027 12.095 3.994824 34.67917 -0.338911
2010-11-17 11:31:57 51°33.093 2°56.016 12.0953 3.994085 34.672743 -0.304087
2010-11-17 11:32:57 51°33.101 2°56.011 12.1077 3.994929 34.677272 -0.338911
2010-11-17 11:33:57 51°33.114 2°56.003 12.0929 3.995984 34.679465 -0.338911
2010-11-17 11:34:57 51°33.13 2°55.992 12.0958 3.995035 34.683405 -0.304087
2010-11-17 11:35:57 51°33.149 2°55.983 12.0929 3.99514 34.682237 -0.338911
2010-11-17 11:36:57 51°33.169 2°55.974 12.0872 3.994718 34.681068 -0.304087
2010-11-17 11:37:57 51°33.19 2°55.966 12.0907 3.99398 34.676831 -0.304087
2010-11-17 11:38:57 51°33.21 2°55.957 12.1 3.994402 34.67654 -0.338911
2010-11-17 11:39:57 51°33.229 2°55.948 12.0802 3.994402 34.67581 -0.338911
2010-11-17 11:40:57 51°33.248 2°55.94 12.0826 3.994402 34.684572 -0.304087
2010-11-17 11:41:57 51°33.267 2°55.932 12.0816 3.994296 34.680629 -0.338911
2010-11-17 11:42:57 51°33.285 2°55.921 12.0905 3.993558 34.674201 -0.338911
2010-11-17 11:43:57 51°33.303 2°55.911 12.0759 3.994824 34.67917 -0.338911
2010-11-17 11:44:57 51°33.322 2°55.9 12.0835 3.993769 34.681358 -0.338911
2010-11-17 11:45:57 51°33.34 2°55.89 12.0833 3.993874 34.678729 -0.338911
2010-11-17 11:46:57 51°33.36 2°55.881 12.0825 3.994507 34.686326 -0.304087
2010-11-17 11:47:57 51°33.38 2°55.872 12.0946 3.994191 34.683258 -0.304087
2010-11-17 11:48:57 51°33.4 2°55.863 12.0845 3.994085 34.672013 -0.304087
2010-11-17 11:49:57 51°33.421 2°55.851 12.0937 3.994296 34.68428 -0.304087
2010-11-17 11:50:57 51°33.423 2°55.837 12.0992 3.994191 34.671576 -0.304087
2010-11-17 11:51:57 51°33.413 2°55.835 12.1035 3.994613 34.673475 -0.304087
2010-11-17 11:52:57 51°33.404 2°55.846 12.1045 3.994824 34.671871 -0.338911
2010-11-17 11:53:57 51°33.397 2°55.866 12.1073 3.997461 34.693044 -0.304087
2010-11-17 11:54:57 51°33.388 2°55.895 12.1072 3.996617 34.685598 -0.338911
2010-11-17 11:55:57 51°33.378 2°55.924 12.1071 3.996723 34.68443 -0.304087
2010-11-17 11:56:57 51°33.367 2°55.953 12.105 3.994718 34.666471 -0.338911
2010-11-17 11:57:57 51°33.356 2°55.988 12.1061 3.995984 34.680925 -0.338911
2010-11-17 11:58:57 51°33.347 2°56.025 12.1085 3.995668 34.680778 -0.338911
2010-11-17 11:59:57 51°33.34 2°56.066 12.106 3.996617 34.681219 -0.269263
2010-11-17 12:00:57 51°33.335 2°56.111 12.1028 3.996828 34.686912 -0.338911
2010-11-17 12:01:57 51°33.327 2°56.159 12.1042 3.995351 34.674792 -0.338911
2010-11-17 12:02:57 51°33.325 2°56.212 12.0977 3.994507 34.665886 -0.338911
2010-11-17 12:03:57 51°33.328 2°56.269 12.0938 3.995351 34.678441 -0.269263
2010-11-17 12:04:57 51°33.34 2°56.33 12.0901 3.995457 34.683113 -0.304087
2010-11-17 12:05:57 51°33.363 2°56.391 12.0884 3.994402 34.67508 -0.304087
2010-11-17 12:06:57 51°33.389 2°56.456 12.0858 3.993241 34.665294 -0.338911
2010-11-17 12:07:57 51°33.401 2°56.513 12.0826 3.993558 34.669821 -0.338911
2010-11-17 12:08:57 51°33.396 2°56.537 12.0801 3.993769 34.676246 -0.338911
2010-11-17 12:09:57 51°33.398 2°56.533 12.088 3.993242 34.674784 -0.304087
2010-11-17 12:10:57 51°33.41 2°56.519 12.0812 3.99398 34.670261 -0.304087
2010-11-17 12:11:57 51°33.428 2°56.504 12.0834 3.993453 34.67683 -0.304087
2010-11-17 12:12:57 51°33.449 2°56.491 12.0574 3.994085 34.682965 -0.338911
2010-11-17 12:13:57 51°33.47 2°56.482 12.0646 3.991448 34.677119 -0.304087
2010-11-17 12:14:57 51°33.493 2°56.473 12.0781 3.991132 34.670396 -0.338911
2010-11-17 12:15:57 51°33.514 2°56.462 12.0842 3.992609 34.670109 -0.304087
2010-11-17 12:16:57 51°33.511 2°56.434 12.0885 3.993874 34.675808 -0.304087
2010-11-17 12:17:57 51°33.48 2°56.411 12.0904 3.993136 34.665002 -0.304087
2010-11-17 12:18:57 51°33.416 2°56.389 12.086 3.994296 34.675518 -0.304087
2010-11-17 12:19:57 51°33.336 2°56.341 12.0739 3.993241 34.671134 -0.338911
2010-11-17 12:20:57 51°33.256 2°56.271 12.0702 3.992503 34.670547 -0.338911
2010-11-17 12:21:57 51°33.177 2°56.194 12.0616 3.990815 34.662215 -0.304087
2010-11-17 12:22:57 51°33.101 2°56.103 12.0544 3.991237 34.669958 -0.304087
2010-11-17 12:23:57 51°33.094 2°55.986 12.0555 3.989971 34.661334 -0.338911
2010-11-17 12:24:57 51°33.149 2°55.929 12.0697 3.990182 34.659729 -0.338911
2010-11-17 12:25:57 51°33.196 2°55.915 12.0715 3.991976 34.668354 -0.304087
2010-11-17 12:26:57 51°33.233 2°55.908 12.0819 3.992398 34.669524 -0.304087
2010-11-17 12:27:57 51°33.263 2°55.902 12.0811 3.991659 34.658716 -0.338911
2010-11-17 12:28:57 51°33.306 2°55.908 12.0877 3.994507 34.684134 -0.304087
2010-11-17 12:29:57 51°33.365 2°55.906 12.0948 3.994613 34.680045 -0.269263
2010-11-17 12:30:57 51°33.408 2°55.848 12.0976 3.994085 34.667634 -0.269263
2010-11-17 12:31:57 51°33.404 2°55.782 12.1078 3.995879 34.682092 -0.304087
2010-11-17 12:32:57 51°33.376 2°55.765 12.1047 3.996301 34.681072 -0.338911
2010-11-17 12:33:57 51°33.356 2°55.772 12.1037 3.996406 34.682823 -0.304087
2010-11-17 12:34:57 51°33.35 2°55.771 12.1024 3.995246 34.6745 -0.304087
2010-11-17 12:35:57 51°33.352 2°55.763 12.1202 3.99514 34.674937 -0.304087
2010-11-17 12:36:57 51°33.36 2°55.749 12.1004 3.997355 34.683994 -0.338911
2010-11-17 12:37:57 51°33.37 2°55.732 12.0953 3.99609 34.686327 -0.338911
2010-11-17 12:38:57 51°33.381 2°55.712 12.1259 3.995246 34.678879 -0.304087
2010-11-17 12:39:57 51°33.391 2°55.692 12.1296 3.99725 34.674948 -0.338911
2010-11-17 12:40:57 51°33.393 2°55.676 12.1207 3.997988 34.679182 -0.304087
2010-11-17 12:41:57 51°33.369 2°55.706 12.104 3.99725 34.682242 -0.338911
2010-11-17 12:42:57 51°33.384 2°55.777 12.0966 3.995773 34.677421 -0.269263
2010-11-17 12:43:57 51°33.417 2°55.792 12.0965 3.994402 34.669242 -0.304087
2010-11-17 12:44:57 51°33.43 2°55.776 12.0985 3.994402 34.668512 -0.304087
2010-11-17 12:45:57 51°33.441 2°55.759 12.0982 3.993874 34.663401 -0.304087
2010-11-17 12:46:57 51°33.454 2°55.744 12.1015 3.994507 34.670264 -0.304087
2010-11-17 12:47:57 51°33.469 2°55.728 12.0948 3.995246 34.671581 -0.338911
2010-11-17 12:48:57 51°33.486 2°55.713 12.1018 3.994296 34.668949 -0.304087
2010-11-17 12:49:57 51°33.501 2°55.698 12.1126 3.995246 34.672311 -0.304087
2010-11-17 12:50:57 51°33.515 2°55.679 12.1148 3.996089 34.669544 -0.304087
2010-11-17 12:51:57 51°33.544 2°55.671 12.11 3.996828 34.674508 -0.304087
2010-11-17 12:52:57 51°33.588 2°55.697 12.113 3.996617 34.673194 -0.304087
2010-11-17 12:53:57 51°33.617 2°55.763 12.1139 3.997672 34.682681 -0.338911
2010-11-17 12:54:57 51°33.594 2°55.813 12.1121 3.996406 34.672609 -0.304087
2010-11-17 12:55:57 51°33.551 2°55.835 12.1044 3.995035 34.667348 -0.304087
2010-11-17 12:56:57 51°33.471 2°55.905 12.0895 3.995668 34.675669 -0.304087
2010-11-17 12:57:57 51°33.357 2°55.972 12.0722 3.994296 34.677708 -0.304087
2010-11-17 12:58:57 51°33.239 2°56.033 12.047 3.990815 34.658564 -0.304087
2010-11-17 12:59:57 51°33.151 2°56.082 12.0375 3.987756 34.651535 -0.338911
2010-11-17 13:00:57 51°33.122 2°55.998 12.0313 3.986279 34.645973 -0.338911
2010-11-17 13:01:57 51°33.162 2°55.918 12.0447 3.98533 34.649914 -0.304087
2010-11-17 13:02:57 51°33.208 2°55.892 12.0473 3.987018 34.654599 -0.338911
2010-11-17 13:03:57 51°33.241 2°55.878 12.0583 3.985541 34.637349 -0.338911
2010-11-17 13:04:57 51°33.267 2°55.865 12.0621 3.987334 34.648172 -0.338911
2010-11-17 13:05:57 51°33.288 2°55.853 12.0607 3.986912 34.641888 -0.338911
2010-11-17 13:06:57 51°33.306 2°55.838 12.0681 3.989233 34.662208 -0.338911
2010-11-17 13:07:57 51°33.32 2°55.821 12.0647 3.99071 34.672879 -0.304087
2010-11-17 13:08:57 51°33.333 2°55.801 12.0735 3.988389 34.652561 -0.338911
2010-11-17 13:09:57 51°33.345 2°55.782 12.0689 3.989233 34.656364 -0.304087
2010-11-17 13:10:57 51°33.356 2°55.761 12.0664 3.990815 34.665136 -0.373735
2010-11-17 13:11:57 51°33.366 2°55.741 12.0697 3.989655 34.660457 -0.338911
2010-11-17 13:12:57 51°33.378 2°55.721 12.0699 3.990393 34.667618 -0.338911
2010-11-17 13:13:57 51°33.391 2°55.703 12.0692 3.988706 34.651979 -0.338911
2010-11-17 13:14:57 51°33.404 2°55.684 12.0687 3.988811 34.653733 -0.338911
2010-11-17 13:15:57 51°33.417 2°55.667 12.0715 3.987545 34.639996 -0.304087
2010-11-17 13:16:57 51°33.429 2°55.647 12.0717 3.98976 34.657828 -0.338911
2010-11-17 13:17:57 51°33.44 2°55.629 12.0763 3.9886 34.650956 -0.338911
2010-11-17 13:18:57 51°33.452 2°55.61 12.0729 3.9886 34.650226 -0.338911
2010-11-17 13:19:57 51°33.464 2°55.591 12.074 3.990815 34.666597 -0.373735
2010-11-17 13:20:57 51°33.477 2°55.571 12.0754 3.989655 34.658265 -0.338911
2010-11-17 13:21:57 51°33.5 2°55.556 12.0806 3.990393 34.659584 -0.373735
2010-11-17 13:22:57 51°33.519 2°55.542 12.0894 3.989971 34.650383 -0.338911
2010-11-17 13:23:57 51°33.534 2°55.527 12.0868 3.990393 34.652284 -0.338911
2010-11-17 13:24:57 51°33.547 2°55.51 12.0906 3.991765 34.661928 -0.338911
2010-11-17 13:25:57 51°33.558 2°55.488 12.0881 3.990499 34.648928 -0.373735
2010-11-17 13:26:57 51°33.594 2°55.464 12.0944 3.990921 34.656667 -0.338911
2010-11-17 13:27:57 51°33.623 2°55.382 12.0966 3.991343 34.658568 -0.304087
2010-11-17 13:28:57 51°33.612 2°55.319 12.1043 3.991765 34.659738 -0.338911
2010-11-17 13:29:57 51°33.606 2°55.29 12.1041 3.991975 34.654486 -0.338911
2010-11-17 13:30:57 51°33.606 2°55.269 12.1104 3.991975 34.653756 -0.304087
2010-11-17 13:31:57 51°33.608 2°55.249 12.1161 3.994824 34.67406 -0.373735
2010-11-17 13:32:57 51°33.611 2°55.229 12.1211 3.992714 34.649971 -0.338911
2010-11-17 13:33:57 51°33.616 2°55.208 12.1313 3.994507 34.662239 -0.338911
2010-11-17 13:34:57 51°33.609 2°55.183 12.1323 3.996828 34.676696 -0.338911
2010-11-17 13:35:57 51°33.566 2°55.147 12.1243 3.995034 34.660055 -0.304087
2010-11-17 13:36:57 51°33.461 2°55.117 12.1124 3.995457 34.669977 -0.304087
2010-11-17 13:37:57 51°33.315 2°55.075 12.1078 3.994718 34.673768 -0.304087
2010-11-17 13:38:57 51°33.134 2°55.026 12.0995 3.992503 34.659598 -0.304087
2010-11-17 13:39:57 51°32.94 2°54.976 12.0878 3.99187 34.658571 -0.338911
2010-11-17 13:40:57 51°32.745 2°54.925 12.0775 3.990393 34.656664 -0.338911
2010-11-17 13:41:57 51°32.551 2°54.876 12.0634 3.989233 34.655634 -0.338911
2010-11-17 13:42:57 51°32.357 2°54.825 12.0471 3.985646 34.633991 -0.338911
2010-11-17 13:43:57 51°32.161 2°54.773 12.0283 3.98322 34.627247 -0.338911
2010-11-17 13:44:57 51°31.966 2°54.722 12.0164 3.984486 34.649032 -0.373735
2010-11-17 13:45:57 51°31.773 2°54.669 12.001 3.981533 34.632054 -0.304087
2010-11-17 13:46:57 51°31.579 2°54.615 11.9916 3.97995 34.634236 -0.373735
2010-11-17 13:47:57 51°31.385 2°54.561 11.9865 3.979212 34.633646 -0.338911
2010-11-17 13:48:57 51°31.191 2°54.51 11.9875 3.979318 34.636866 -0.373735
2010-11-17 13:49:57 51°30.996 2°54.459 11.9993 3.979423 34.637891 -0.338911
2010-11-17 13:50:57 51°30.803 2°54.406 11.9955 3.979529 34.638184 -0.338911
2010-11-17 13:51:57 51°30.606 2°54.352 11.999 3.979529 34.635258 -0.338911
2010-11-17 13:52:57 51°30.408 2°54.302 12.0031 3.980056 34.633066 -0.338911
2010-11-17 13:53:57 51°30.21 2°54.25 11.9907 3.980056 34.633798 -0.338911
2010-11-17 13:54:57 51°30.012 2°54.195 11.9832 3.979107 34.634816 -0.304087
2010-11-17 13:55:57 51°29.812 2°54.139 11.9727 3.978685 34.638034 -0.304087
2010-11-17 13:56:57 51°29.615 2°54.084 11.9741 3.976047 34.620455 -0.338911
2010-11-17 13:57:57 51°29.417 2°54.027 11.9632 3.975837 34.6206 -0.304087
2010-11-17 13:58:57 51°29.218 2°53.974 11.9338 3.973516 34.608286 -0.338911
2010-11-17 13:59:57 51°29.02 2°53.933 11.9068 3.968242 34.583342 -0.338911
2010-11-17 14:00:57 51°28.821 2°53.909 11.893 3.963917 34.560293 -0.338911
2010-11-17 14:01:57 51°28.62 2°53.883 11.8802 3.96128 34.552925 -0.304087
2010-11-17 14:02:57 51°28.42 2°53.854 11.8735 3.958431 34.536177 -0.338911
2010-11-17 14:03:57 51°28.219 2°53.831 11.8817 3.958326 34.534418 -0.338911
2010-11-17 14:04:57 51°28.019 2°53.821 11.8953 3.959592 34.539423 -0.373735
2010-11-17 14:05:57 51°27.819 2°53.807 11.9089 3.962651 34.554561 -0.373735
2010-11-17 14:06:57 51°27.62 2°53.801 11.9025 3.964972 34.569826 -0.338911
2010-11-17 14:07:57 51°27.419 2°53.787 11.8651 3.964339 34.579776 -0.338911
2010-11-17 14:08:57 51°27.218 2°53.773 11.8416 3.959487 34.5611 -0.338911
2010-11-17 14:09:57 51°27.018 2°53.758 11.8215 3.955584 34.539196 -0.304087
2010-11-17 14:10:57 51°26.815 2°53.743 11.7987 3.951048 34.51917 -0.338911
2010-11-17 14:11:57 51°26.613 2°53.732 11.7718 3.947778 34.504141 -0.304087
2010-11-17 14:12:57 51°26.408 2°53.715 11.7571 3.943664 34.488934 -0.338911
2010-11-17 14:13:57 51°26.205 2°53.699 11.7417 3.941344 34.480952 -0.338911
2010-11-17 14:14:57 51°26.001 2°53.683 11.7463 3.9405 34.484452 -0.304087
2010-11-17 14:15:57 51°25.798 2°53.666 11.7643 3.939761 34.469906 -0.338911
2010-11-17 14:16:57 51°25.595 2°53.65 11.7798 3.940289 34.461126 -0.373735
2010-11-17 14:17:57 51°25.392 2°53.635 11.7842 3.941027 34.454411 -0.338911
2010-11-17 14:18:57 51°25.189 2°53.618 11.7893 3.941343 34.449444 -0.373735
2010-11-17 14:19:57 51°24.986 2°53.6 11.7824 3.941132 34.44885 -0.338911
2010-11-17 14:20:57 51°24.783 2°53.581 11.7642 3.942082 34.465434 -0.338911
2010-11-17 14:21:57 51°24.579 2°53.562 11.705 3.940394 34.466553 -0.408559
2010-11-17 14:22:57 51°24.375 2°53.543 11.6503 3.933644 34.46445 -0.408559
2010-11-17 14:23:57 51°24.174 2°53.525 11.6257 3.928159 34.449017 -0.408559
2010-11-17 14:24:57 51°23.969 2°53.502 11.6083 3.92299 34.418281 -0.408559
2010-11-17 14:25:57 51°23.765 2°53.453 11.5941 3.922358 34.429731 -0.408559
2010-11-17 14:26:57 51°23.561 2°53.397 11.5827 3.919088 34.412416 -0.443383
2010-11-17 14:27:57 51°23.359 2°53.343 11.5659 3.918033 34.413853 -0.408559
2010-11-17 14:28:57 51°23.153 2°53.289 11.543 3.916767 34.422061 -0.408559
2010-11-17 14:29:57 51°22.949 2°53.236 11.5425 3.916346 34.431186 -0.373735
2010-11-17 14:30:57 51°22.745 2°53.181 11.5068 3.917401 34.453333 -0.373735
2010-11-17 14:31:57 51°22.54 2°53.122 11.4917 3.91392 34.439835 -0.408559
2010-11-17 14:32:57 51°22.333 2°53.061 11.4689 3.914659 34.467765 -0.373735
2010-11-17 14:33:57 51°22.127 2°53.002 11.4406 3.9116 34.456194 -0.373735
2010-11-17 14:34:57 51°21.921 2°52.942 11.3886 3.90833 34.449198 -0.373735
2010-11-17 14:35:57 51°21.718 2°52.881 11.3316 3.897572 34.398843 -0.338911
2010-11-17 14:36:57 51°21.513 2°52.826 11.2938 3.885336 34.327909 -0.373735
2010-11-17 14:37:57 51°21.311 2°52.765 11.2674 3.879852 34.304918 -0.338911
2010-11-17 14:38:57 51°21.107 2°52.707 11.2363 3.875527 34.290387 -0.338911
2010-11-17 14:39:57 51°20.902 2°52.67 11.2076 3.868671 34.247152 -0.373735
2010-11-17 14:40:57 51°20.697 2°52.626 11.1883 3.865296 34.236029 -0.373735
2010-11-17 14:41:57 51°20.491 2°52.583 11.1646 3.858229 34.185466 -0.373735
2010-11-17 14:42:57 51°20.285 2°52.536 11.148 3.855382 34.180999 -0.373735
2010-11-17 14:43:57 51°20.08 2°52.49 11.1454 3.850108 34.139966 -0.373735
2010-11-17 14:44:57 51°19.872 2°52.447 11.1766 3.849475 34.13371 -0.373735
2010-11-17 14:45:57 51°19.663 2°52.404 11.2197 3.85939 34.198407 -0.373735
2010-11-17 14:46:57 51°19.454 2°52.358 11.2346 3.861288 34.183885 -0.373735
2010-11-17 14:47:57 51°19.246 2°52.313 11.2319 3.862975 34.191676 -0.373735
2010-11-17 14:48:57 51°19.038 2°52.269 11.2225 3.865507 34.218877 -0.373735
2010-11-17 14:49:57 51°18.829 2°52.227 11.2092 3.864558 34.21764 -0.338911
2010-11-17 14:50:57 51°18.621 2°52.187 11.1971 3.860761 34.194938 -0.373735
2010-11-17 14:51:57 51°18.414 2°52.143 11.161 3.85844 34.189769 -0.408559
2010-11-17 14:52:57 51°18.206 2°52.098 11.125 3.853272 34.166067 -0.373735
2010-11-17 14:53:57 51°17.998 2°52.082 11.0995 3.846417 34.12565 -0.373735
2010-11-17 14:54:57 51°17.788 2°52.076 11.0793 3.841671 34.100886 -0.408559
2010-11-17 14:55:57 51°17.579 2°52.072 11.0462 3.833127 34.048862 -0.408559
2010-11-17 14:56:57 51°17.374 2°52.115 11.0258 3.827432 34.016853 -0.373735
2010-11-17 14:57:57 51°17.181 2°52.22 11.0039 3.820155 33.959534 -0.408559
2010-11-17 14:58:57 51°16.995 2°52.347 11.0017 3.810557 33.8792 -0.408559
2010-11-17 14:59:57 51°16.814 2°52.486 10.9988 3.802857 33.808816 -0.408559
2010-11-17 15:00:57 51°16.631 2°52.624 11.2391 0.105229 0.720937 -0.58268
2010-11-17 15:01:57 51°16.45 2°52.769 11.3539 0.081396 0.551356 -0.547855
2010-11-17 15:02:57 51°16.274 2°52.922 11.4531 0.069118 0.464899 -0.513031
2010-11-17 15:03:57 51°16.101 2°53.083 11.5856 0.761357 5.283772 -0.547855
2010-11-17 15:04:57 51°15.936 2°53.258 11.7137 0.106997 0.656895 -0.58268
2010-11-17 15:05:57 51°15.775 2°53.441 11.8044 0.062666 0.375041 -0.513031
2010-11-17 15:06:57 51°15.621 2°53.636 11.895 0.074319 0.447764 -0.513031
2010-11-17 15:07:57 51°15.493 2°53.87 12.0131 0.079938 0.484198 -0.513031
2010-11-17 15:08:57 51°15.355 2°54.089 12.0982 0.080146 0.48625 -0.547855
2010-11-17 15:09:57 51°15.184 2°54.259 12.2182 0.079106 0.47965 -0.513031
2010-11-17 15:10:57 51°15.014 2°54.434 12.3231 0.07692 0.465934 -0.547855
2010-11-17 15:11:57 51°14.849 2°54.621 12.4326 0.074943 0.45372 -0.547855
2010-11-17 15:12:57 51°14.686 2°54.812 12.4944 0.073383 0.443953 -0.513031
2010-11-17 15:13:57 51°14.524 2°55.002 12.5961 0.072134 0.436097 -0.547855
2010-11-17 15:14:57 51°14.36 2°55.18 12.6129 0.070365 0.425117 -0.547855
2010-11-17 15:15:57 51°14.215 2°55.328 12.731 0.068909 0.416077 -0.547855
2010-11-17 15:16:58 51°14.099 2°55.433 12.7955 0.06766 0.40827 -0.547855
2010-11-17 15:17:57 51°14.003 2°55.502 12.8789 0.066516 0.401113 -0.513031
2010-11-17 15:18:58 51°13.907 2°55.563 12.9626 0.065683 0.395982 -0.547855
2010-11-17 15:19:59 51°13.813 2°55.643 13.0532 0.064955 0.391496 -0.513031
2010-11-17 15:21:00 51°13.743 2°55.739 13.1389 0.064227 0.387025 -0.547855
2010-11-17 15:21:58 51°13.695 2°55.835 13.211 0.063602 0.383232 -0.547855
2010-11-17 15:22:57 51°13.666 2°55.926 13.3147 0.062978 0.379446 -0.547855
2010-11-17 15:23:57 51°13.662 2°55.961 13.4692 0.062562 0.376915 -0.547855
2010-11-17 15:24:57 51°13.661 2°55.96 13.5682 0.062146 0.37439 -0.547855
2010-11-17 15:25:57 51°13.662 2°55.96 13.6115 0.061834 0.372501 -0.547855